createdAt,value
2023-01-18T00:01:20.453Z,53.40
2023-01-18T00:03:45.056Z,45.88
2023-01-18T00:06:11.773Z,50.65
2023-01-18T00:08:39.668Z,48.22
2023-01-18T00:11:05.541Z,53.03
2023-01-18T00:13:30.032Z,49.63
2023-01-18T00:15:54.904Z,52.88
2023-01-18T00:18:19.265Z,50.88
2023-01-18T00:20:43.811Z,51.60
2023-01-18T00:23:08.147Z,49.95
2023-01-18T00:25:34.116Z,49.90
2023-01-18T00:27:58.660Z,67.22
2023-01-18T00:30:25.508Z,57.92
2023-01-18T00:32:50.647Z,49.28
2023-01-18T00:35:15.707Z,61.15
2023-01-18T00:37:40.457Z,60.08
2023-01-18T00:40:07.130Z,65.97
2023-01-18T00:42:50.431Z,68.72
2023-01-18T00:45:15.182Z,63.25
2023-01-18T00:47:39.592Z,69.55
2023-01-18T00:50:04.712Z,60.85
2023-01-18T00:52:29.470Z,58.45
2023-01-18T00:54:53.950Z,63.50
2023-01-18T00:57:18.331Z,69.72
2023-01-18T00:59:44.240Z,60.55
2023-01-18T01:02:09.246Z,64.70
2023-01-18T01:04:51.292Z,66.45
2023-01-18T01:07:15.886Z,53.47
2023-01-18T01:09:40.473Z,59.60
2023-01-18T01:12:23.308Z,66.85
2023-01-18T01:15:07.782Z,64.90
2023-01-18T01:17:50.534Z,60.63
2023-01-18T01:20:32.939Z,62.25
2023-01-18T01:23:14.861Z,63.65
2023-01-18T01:25:56.881Z,64.32
2023-01-18T01:28:21.405Z,67.53
2023-01-18T01:30:47.190Z,70.55
2023-01-18T01:33:11.881Z,74.55
2023-01-18T01:35:36.350Z,79.38
2023-01-18T01:38:00.865Z,80.97
2023-01-18T01:40:25.462Z,80.90
2023-01-18T01:42:50.432Z,81.20
2023-01-18T01:45:15.209Z,70.32
2023-01-18T01:47:44.844Z,85.75
2023-01-18T01:50:16.660Z,78.82
2023-01-18T01:52:45.061Z,86.82
2023-01-18T01:55:14.259Z,81.72
2023-01-18T01:57:43.937Z,80.07
2023-01-18T02:00:14.393Z,76.35
2023-01-18T02:02:41.533Z,86.10
2023-01-18T02:05:09.310Z,173.48
2023-01-18T02:07:34.786Z,247.40
2023-01-18T02:09:59.899Z,132.32
2023-01-18T02:12:24.884Z,111.38
2023-01-18T02:14:49.506Z,88.80
2023-01-18T02:17:28.592Z,92.15
2023-01-18T02:20:21.909Z,83.88
2023-01-18T02:23:08.639Z,88.82
2023-01-18T02:26:01.011Z,88.68
2023-01-18T02:28:33.716Z,93.82
2023-01-18T02:31:04.645Z,90.47
2023-01-18T02:33:34.778Z,91.10
2023-01-18T02:38:28.255Z,79.90
2023-01-18T02:41:10.399Z,94.25
2023-01-18T02:43:54.904Z,102.30
2023-01-18T02:46:34.202Z,85.28
2023-01-18T02:49:00.316Z,76.88
2023-01-18T02:51:24.905Z,76.03
2023-01-18T02:53:50.164Z,68.05
2023-01-18T02:56:18.517Z,69.72
2023-01-18T02:58:47.978Z,70.72
2023-01-18T03:01:17.691Z,59.72
2023-01-18T03:03:45.479Z,59.65
2023-01-18T03:06:10.600Z,115.28
2023-01-18T03:08:40.042Z,94.60
2023-01-18T03:11:09.110Z,157.68
2023-01-18T03:13:59.670Z,151.63
2023-01-18T03:16:27.947Z,90.63
2023-01-18T03:19:02.432Z,95.45
2023-01-18T03:21:29.415Z,105.65
2023-01-18T03:23:54.150Z,96.50
2023-01-18T03:26:21.757Z,95.57
2023-01-18T03:29:09.073Z,84.15
2023-01-18T03:31:57.547Z,86.00
2023-01-18T03:34:29.504Z,77.47
2023-01-18T03:36:56.878Z,76.65
2023-01-18T03:39:28.367Z,76.68
2023-01-18T03:41:57.466Z,89.38
2023-01-18T03:44:33.940Z,80.28
2023-01-18T03:46:58.630Z,74.82
2023-01-18T03:49:23.160Z,75.25
2023-01-18T03:52:00.524Z,74.43
2023-01-18T03:54:35.268Z,71.45
2023-01-18T03:57:04.536Z,65.78
2023-01-18T03:59:34.546Z,67.60
2023-01-18T04:04:23.017Z,68.57
2023-01-18T04:06:47.430Z,65.53
2023-01-18T04:09:13.056Z,67.63
2023-01-18T04:11:37.542Z,70.03
2023-01-18T04:14:01.903Z,73.03
2023-01-18T04:16:27.810Z,71.63
2023-01-18T04:18:53.426Z,71.22
2023-01-18T04:21:17.849Z,68.65
2023-01-18T04:23:42.196Z,69.15
2023-01-18T04:26:06.844Z,65.05
2023-01-18T04:28:33.754Z,70.18
2023-01-18T04:30:58.735Z,71.53
2023-01-18T04:33:26.925Z,75.95
2023-01-18T04:35:54.393Z,73.88
2023-01-18T04:38:18.846Z,74.53
2023-01-18T04:40:43.489Z,70.43
2023-01-18T04:43:08.041Z,68.18
2023-01-18T04:45:32.418Z,77.05
2023-01-18T04:47:57.004Z,71.78
2023-01-18T04:50:22.821Z,71.20
2023-01-18T04:52:47.157Z,66.53
2023-01-18T04:55:15.908Z,62.67
2023-01-18T04:57:40.343Z,69.50
2023-01-18T05:00:07.244Z,62.28
2023-01-18T05:02:33.110Z,56.50
2023-01-18T05:04:57.498Z,61.20
2023-01-18T05:07:25.977Z,62.03
2023-01-18T05:09:50.446Z,67.72
2023-01-18T05:12:15.576Z,58.65
2023-01-18T05:14:40.019Z,58.47
2023-01-18T05:17:04.443Z,61.25
2023-01-18T05:19:30.563Z,59.42
2023-01-18T05:21:54.909Z,57.88
2023-01-18T05:24:20.772Z,59.97
2023-01-18T05:26:45.309Z,60.95
2023-01-18T05:29:09.724Z,57.50
2023-01-18T05:31:34.450Z,60.55
2023-01-18T05:33:58.826Z,60.10
2023-01-18T05:36:23.226Z,54.40
2023-01-18T05:38:48.497Z,57.50
2023-01-18T05:41:14.298Z,56.10
2023-01-18T05:43:38.816Z,55.78
2023-01-18T05:46:04.743Z,66.47
2023-01-18T05:48:29.114Z,60.03
2023-01-18T05:50:54.010Z,58.65
2023-01-18T05:53:20.153Z,58.92
2023-01-18T05:55:45.007Z,58.72
2023-01-18T05:58:11.741Z,66.40
2023-01-18T06:00:36.342Z,58.03
2023-01-18T06:03:01.192Z,64.93
2023-01-18T06:05:26.358Z,60.78
2023-01-18T06:07:50.772Z,65.03
2023-01-18T06:10:15.527Z,62.55
2023-01-18T06:12:39.888Z,70.82
2023-01-18T06:15:08.924Z,60.05
2023-01-18T06:17:34.336Z,65.50
2023-01-18T06:19:58.726Z,67.75
2023-01-18T06:22:23.279Z,67.13
2023-01-18T06:24:47.618Z,68.90
2023-01-18T06:27:12.148Z,86.00
2023-01-18T06:29:37.202Z,121.40
2023-01-18T06:32:03.411Z,87.85
2023-01-18T06:34:30.290Z,86.15
2023-01-18T06:36:54.949Z,144.80
2023-01-18T06:39:19.835Z,312.88
2023-01-18T06:41:44.240Z,348.42
2023-01-18T06:44:08.823Z,68.47
2023-01-18T06:46:33.421Z,76.43
2023-01-18T06:48:59.437Z,75.70
2023-01-18T06:51:24.269Z,60.67
2023-01-18T06:53:48.940Z,59.42
2023-01-18T06:56:14.677Z,52.10
2023-01-18T06:58:39.209Z,65.70
2023-01-18T07:01:05.121Z,54.38
2023-01-18T07:03:31.152Z,58.10
2023-01-18T07:05:57.776Z,52.90
2023-01-18T07:08:22.811Z,62.65
2023-01-18T07:10:47.528Z,106.70
2023-01-18T07:13:12.007Z,78.68
2023-01-18T07:15:36.634Z,55.33
2023-01-18T07:18:01.790Z,59.13
2023-01-18T07:20:26.361Z,61.58
2023-01-18T07:22:53.881Z,66.95
2023-01-18T07:25:18.857Z,58.47
2023-01-18T07:27:43.982Z,58.15
2023-01-18T07:30:12.516Z,66.80
2023-01-18T07:32:37.417Z,42.42
2023-01-18T07:35:02.012Z,37.47
2023-01-18T07:37:27.720Z,40.63
2023-01-18T07:39:54.557Z,25.15
2023-01-18T07:42:19.510Z,31.77
2023-01-18T07:44:44.523Z,15.98
2023-01-18T07:47:09.263Z,11.10
2023-01-18T07:49:33.541Z,23.38
2023-01-18T07:52:04.041Z,12.82
2023-01-18T07:54:28.577Z,13.25
2023-01-18T07:56:54.434Z,19.67
2023-01-18T07:59:19.074Z,18.55
2023-01-18T08:01:43.557Z,21.85
2023-01-18T08:04:10.168Z,20.05
2023-01-18T08:06:35.113Z,10.55
2023-01-18T08:08:59.955Z,13.30
2023-01-18T08:11:25.343Z,18.15
2023-01-18T08:13:52.720Z,18.33
2023-01-18T08:16:18.055Z,19.10
2023-01-18T08:18:42.594Z,12.85
2023-01-18T08:21:10.542Z,21.45
2023-01-18T08:23:35.170Z,20.58
2023-01-18T08:26:03.444Z,13.10
2023-01-18T08:28:28.319Z,19.63
2023-01-18T08:30:54.406Z,14.13
2023-01-18T08:33:18.915Z,12.40
2023-01-18T08:35:45.477Z,20.80
2023-01-18T08:38:10.648Z,11.82
2023-01-18T08:40:35.137Z,14.10
2023-01-18T08:43:04.259Z,13.73
2023-01-18T08:45:30.266Z,23.90
2023-01-18T08:48:02.449Z,24.95
2023-01-18T08:50:33.559Z,18.73
2023-01-18T08:53:00.453Z,16.88
2023-01-18T08:55:25.213Z,17.15
2023-01-18T08:57:50.127Z,15.27
2023-01-18T09:00:15.853Z,14.10
2023-01-18T09:02:41.278Z,11.90
2023-01-18T09:05:24.871Z,14.23
2023-01-18T09:07:50.969Z,15.85
2023-01-18T09:10:15.672Z,19.27
2023-01-18T09:12:40.727Z,10.98
2023-01-18T09:15:06.353Z,14.88
2023-01-18T09:17:32.257Z,19.60
2023-01-18T09:19:56.742Z,20.70
2023-01-18T09:22:22.752Z,10.80
2023-01-18T09:24:47.169Z,20.98
2023-01-18T09:27:14.028Z,21.00
2023-01-18T09:29:38.525Z,21.30
2023-01-18T09:32:03.030Z,12.15
2023-01-18T09:34:27.804Z,15.00
2023-01-18T09:36:53.174Z,22.58
2023-01-18T09:39:19.615Z,15.93
2023-01-18T09:41:47.176Z,10.32
2023-01-18T09:44:18.677Z,14.68
2023-01-18T09:46:44.278Z,10.27
2023-01-18T09:49:17.265Z,19.75
2023-01-18T09:51:52.389Z,9.65
2023-01-18T09:54:29.476Z,20.63
2023-01-18T09:56:58.720Z,12.77
2023-01-18T09:59:30.671Z,23.70
2023-01-18T10:01:56.384Z,17.70
2023-01-18T10:04:25.624Z,16.98
2023-01-18T10:06:55.121Z,11.30
2023-01-18T10:09:25.015Z,20.00
2023-01-18T10:16:47.147Z,17.50
2023-01-18T10:19:16.329Z,11.30
2023-01-18T10:21:51.261Z,12.47
2023-01-18T10:24:39.806Z,18.33
2023-01-18T10:27:22.418Z,17.25
2023-01-18T10:29:58.452Z,14.43
2023-01-18T10:32:27.698Z,12.30
2023-01-18T10:34:53.744Z,13.82
2023-01-18T10:37:27.783Z,14.23
2023-01-18T10:39:58.444Z,11.50
2023-01-18T10:42:25.112Z,18.55
2023-01-18T10:44:49.594Z,19.98
2023-01-18T10:47:18.463Z,12.65
2023-01-18T10:49:44.937Z,12.93
2023-01-18T10:52:26.456Z,11.35
2023-01-18T10:54:55.839Z,14.63
2023-01-18T10:57:25.577Z,15.50
2023-01-18T10:59:52.932Z,16.48
2023-01-18T11:02:24.500Z,20.10
2023-01-18T11:04:57.287Z,12.30
2023-01-18T11:07:26.777Z,19.02
2023-01-18T11:09:55.827Z,19.13
2023-01-18T11:12:41.665Z,12.85
2023-01-18T11:15:25.487Z,15.35
2023-01-18T11:18:02.082Z,10.80
2023-01-18T11:20:34.131Z,13.57
2023-01-18T11:23:00.506Z,13.32
2023-01-18T11:25:28.245Z,12.82
2023-01-18T11:27:52.931Z,12.85
2023-01-18T11:30:22.357Z,18.77
2023-01-18T11:32:46.967Z,19.73
2023-01-18T11:35:11.922Z,15.45
2023-01-18T11:37:38.156Z,19.35
2023-01-18T11:40:28.465Z,12.70
2023-01-18T11:42:57.984Z,12.82
2023-01-18T11:45:28.015Z,13.23
2023-01-18T11:48:02.655Z,13.13
2023-01-18T11:50:32.456Z,12.23
2023-01-18T11:53:04.525Z,13.20
2023-01-18T11:55:36.748Z,9.57
2023-01-18T11:58:02.043Z,13.15
2023-01-18T12:00:29.582Z,16.20
2023-01-18T12:03:23.527Z,13.32
2023-01-18T12:05:55.440Z,8.55
2023-01-18T12:08:38.533Z,11.68
2023-01-18T12:11:20.724Z,16.10
2023-01-18T12:13:54.850Z,14.30
2023-01-18T12:16:24.954Z,13.77
2023-01-18T12:19:05.967Z,11.15
2023-01-18T12:21:41.270Z,10.95
2023-01-18T12:24:19.935Z,16.05
2023-01-18T12:26:52.485Z,8.60
2023-01-18T12:29:48.508Z,13.75
2023-01-18T12:32:35.961Z,11.68
2023-01-18T12:35:24.490Z,14.20
2023-01-18T12:37:59.456Z,11.40
2023-01-18T12:40:37.334Z,15.45
2023-01-18T12:43:15.867Z,17.17
2023-01-18T12:45:42.933Z,16.95
2023-01-18T12:48:17.434Z,10.15
2023-01-18T12:50:44.721Z,18.23
2023-01-18T12:53:16.284Z,16.13
2023-01-18T12:55:46.835Z,12.60
2023-01-18T12:58:20.715Z,16.23
2023-01-18T13:00:50.489Z,14.75
2023-01-18T13:03:23.137Z,16.33
2023-01-18T13:05:55.237Z,17.00
2023-01-18T13:08:29.032Z,10.88
2023-01-18T13:10:57.097Z,14.55
2023-01-18T13:13:28.366Z,19.20
2023-01-18T13:15:58.862Z,18.02
2023-01-18T13:18:28.453Z,9.02
2023-01-18T13:21:13.861Z,13.82
2023-01-18T13:23:50.606Z,15.60
2023-01-18T13:26:24.473Z,10.73
2023-01-18T13:29:06.720Z,13.00
2023-01-18T13:31:33.090Z,15.75
2023-01-18T13:33:58.760Z,11.57
2023-01-18T13:36:23.811Z,12.57
2023-01-18T13:38:53.829Z,14.07
2023-01-18T13:41:25.001Z,12.85
2023-01-18T13:44:27.119Z,11.27
2023-01-18T13:46:51.891Z,16.85
2023-01-18T13:49:37.595Z,13.95
2023-01-18T13:52:04.505Z,12.40
2023-01-18T13:55:02.623Z,18.98
2023-01-18T13:57:28.986Z,17.88
2023-01-18T13:59:55.077Z,14.35
2023-01-18T14:02:26.763Z,7.88
2023-01-18T14:05:07.317Z,17.90
2023-01-18T14:07:40.549Z,16.90
2023-01-18T14:10:08.334Z,10.00
2023-01-18T14:12:49.605Z,17.38
2023-01-18T14:15:26.981Z,13.43
2023-01-18T14:17:58.527Z,14.80
2023-01-18T14:20:48.912Z,19.63
2023-01-18T14:23:34.734Z,11.80
2023-01-18T14:26:03.244Z,15.68
2023-01-18T14:28:36.173Z,16.30
2023-01-18T14:31:04.607Z,13.77
2023-01-18T14:33:33.845Z,24.35
2023-01-18T14:36:01.159Z,11.25
2023-01-18T14:38:26.879Z,20.25
2023-01-18T14:40:54.113Z,12.70
2023-01-18T14:43:25.019Z,20.38
2023-01-18T14:45:56.792Z,20.13
2023-01-18T14:48:26.269Z,16.33
2023-01-18T14:50:54.446Z,17.27
2023-01-18T14:53:24.023Z,9.13
2023-01-18T14:56:04.638Z,9.68
2023-01-18T14:58:32.828Z,19.15
2023-01-18T15:00:57.754Z,21.40
2023-01-18T15:03:27.602Z,10.93
2023-01-18T15:06:00.285Z,16.90
2023-01-18T15:08:28.072Z,15.63
2023-01-18T15:10:52.650Z,14.50
2023-01-18T15:13:20.457Z,24.55
2023-01-18T15:15:46.302Z,21.80
2023-01-18T15:18:16.727Z,15.77
2023-01-18T15:20:56.682Z,23.95
2023-01-18T15:23:22.042Z,18.48
2023-01-18T15:25:50.316Z,17.42
2023-01-18T15:28:23.562Z,18.17
2023-01-18T15:30:53.008Z,16.23
2023-01-18T15:33:18.603Z,23.00
2023-01-18T15:35:47.919Z,21.23
2023-01-18T15:38:13.991Z,16.63
2023-01-18T15:40:43.436Z,19.42
2023-01-18T15:43:15.247Z,16.73
2023-01-18T15:45:49.630Z,19.00
2023-01-18T15:48:22.589Z,19.15
2023-01-18T15:50:50.868Z,18.45
2023-01-18T15:53:20.359Z,16.75
2023-01-18T15:55:51.643Z,18.55
2023-01-18T15:58:26.306Z,16.60
2023-01-18T16:00:57.252Z,29.70
2023-01-18T16:03:23.822Z,11.80
2023-01-18T16:06:11.489Z,17.02
2023-01-18T16:08:36.243Z,16.70
2023-01-18T16:11:00.792Z,16.52
2023-01-18T16:13:36.780Z,22.00
2023-01-18T16:16:24.225Z,16.50
2023-01-18T16:18:52.209Z,23.38
2023-01-18T16:21:27.140Z,33.72
2023-01-18T16:23:53.822Z,16.50
2023-01-18T16:26:23.396Z,19.15
2023-01-18T16:28:48.907Z,21.30
2023-01-18T16:31:13.967Z,21.08
2023-01-18T16:33:38.717Z,13.05
2023-01-18T16:36:15.506Z,13.68
2023-01-18T16:38:43.245Z,20.48
2023-01-18T16:41:08.325Z,22.60
2023-01-18T16:43:36.298Z,18.88
2023-01-18T16:46:04.394Z,22.95
2023-01-18T16:48:31.059Z,14.75
2023-01-18T16:50:56.739Z,17.75
2023-01-18T16:53:21.346Z,13.88
2023-01-18T16:55:48.394Z,22.38
2023-01-18T16:58:14.326Z,18.65
2023-01-18T17:00:49.582Z,21.45
2023-01-18T17:03:14.944Z,24.60
2023-01-18T17:05:39.781Z,21.00
2023-01-18T17:08:05.088Z,16.23
2023-01-18T17:10:37.099Z,15.07
2023-01-18T17:13:03.858Z,14.30
2023-01-18T17:15:30.828Z,15.07
2023-01-18T17:17:55.698Z,29.05
2023-01-18T17:20:23.482Z,21.00
2023-01-18T17:22:48.136Z,17.08
2023-01-18T17:25:14.785Z,18.95
2023-01-18T17:27:39.301Z,21.23
2023-01-18T17:30:06.045Z,20.02
2023-01-18T17:32:32.236Z,24.13
2023-01-18T17:34:57.131Z,15.93
2023-01-18T17:37:21.795Z,19.65
2023-01-18T17:40:02.392Z,26.58
2023-01-18T17:42:30.416Z,18.42
2023-01-18T17:45:02.800Z,21.15
2023-01-18T17:47:31.746Z,21.73
2023-01-18T17:49:56.782Z,16.88
2023-01-18T17:52:21.587Z,17.15
2023-01-18T17:54:46.076Z,18.88
2023-01-18T17:57:10.746Z,19.42
2023-01-18T17:59:35.319Z,17.13
2023-01-18T18:02:00.764Z,25.45
2023-01-18T18:04:26.983Z,31.65
2023-01-18T18:06:54.435Z,24.45
2023-01-18T18:09:19.134Z,24.55
2023-01-18T18:11:43.930Z,15.18
2023-01-18T18:14:08.473Z,11.18
2023-01-18T18:16:40.849Z,14.88
2023-01-18T18:19:07.645Z,12.63
2023-01-18T18:21:36.409Z,18.88
2023-01-18T18:24:09.305Z,12.88
2023-01-18T18:26:37.971Z,12.32
2023-01-18T18:29:02.800Z,17.02
2023-01-18T18:31:29.715Z,16.17
2023-01-18T18:33:54.699Z,16.40
2023-01-18T18:36:19.441Z,14.73
2023-01-18T18:38:45.724Z,16.60
2023-01-18T18:41:10.652Z,18.02
2023-01-18T18:43:35.111Z,18.85
2023-01-18T18:46:00.197Z,11.43
2023-01-18T18:48:25.089Z,15.57
2023-01-18T18:50:52.460Z,13.90
2023-01-18T18:53:36.936Z,12.85
2023-01-18T18:56:07.668Z,16.42
2023-01-18T18:58:49.958Z,14.68
2023-01-18T19:01:23.360Z,16.00
2023-01-18T19:03:49.802Z,17.75
2023-01-18T19:06:14.345Z,62.95
2023-01-18T19:08:38.771Z,40.47
2023-01-18T19:11:14.263Z,35.53
2023-01-18T19:13:43.186Z,29.73
2023-01-18T19:16:09.737Z,21.33
2023-01-18T19:18:36.609Z,24.80
2023-01-18T19:21:01.484Z,36.15
2023-01-18T19:23:44.111Z,43.42
2023-01-18T19:26:11.408Z,79.22
2023-01-18T19:28:36.153Z,36.60
2023-01-18T19:31:07.204Z,27.13
2023-01-18T19:33:35.685Z,48.60
2023-01-18T19:36:10.447Z,51.25
2023-01-18T19:38:47.279Z,29.83
2023-01-18T19:41:16.947Z,185.65
2023-01-18T19:44:01.861Z,19.83
2023-01-18T19:46:37.328Z,74.07
2023-01-18T19:49:04.212Z,20.58
2023-01-18T19:51:39.959Z,18.55
2023-01-18T19:54:07.669Z,16.55
2023-01-18T19:56:37.272Z,19.45
2023-01-18T19:59:20.379Z,26.38
2023-01-18T20:01:46.367Z,22.77
2023-01-18T20:04:13.610Z,22.48
2023-01-18T20:06:40.013Z,16.63
2023-01-18T20:09:19.038Z,13.75
2023-01-18T20:12:29.161Z,17.35
2023-01-18T20:15:17.699Z,15.57
2023-01-18T20:17:42.449Z,15.80
2023-01-18T20:20:07.904Z,18.95
2023-01-18T20:22:32.584Z,47.47
2023-01-18T20:24:57.048Z,139.63
2023-01-18T20:27:23.569Z,39.65
2023-01-18T20:29:47.988Z,317.40
2023-01-18T20:32:17.734Z,76.63
2023-01-18T20:34:44.686Z,237.95
2023-01-18T20:37:10.077Z,484.13
2023-01-18T20:39:34.520Z,413.20
2023-01-18T20:41:58.889Z,302.88
2023-01-18T20:44:24.958Z,204.50
2023-01-18T20:46:51.000Z,704.85
2023-01-18T20:49:15.614Z,578.88
2023-01-18T20:51:41.724Z,412.08
2023-01-18T20:54:06.327Z,182.75
2023-01-18T20:56:32.160Z,300.92
2023-01-18T20:58:56.852Z,311.25
2023-01-18T21:01:22.848Z,302.40
2023-01-18T21:03:53.938Z,272.25
2023-01-18T21:06:18.460Z,216.80
2023-01-18T21:08:43.004Z,159.77
2023-01-18T21:11:12.891Z,183.82
2023-01-18T21:13:38.118Z,70.68
2023-01-18T21:16:03.744Z,250.88
2023-01-18T21:18:29.943Z,117.97
2023-01-18T21:20:54.843Z,466.55
2023-01-18T21:23:20.444Z,25.88
2023-01-18T21:25:50.829Z,28.75
2023-01-18T21:28:15.453Z,47.20
2023-01-18T21:30:39.872Z,43.60
2023-01-18T21:33:04.323Z,44.00
2023-01-18T21:35:30.439Z,47.15
2023-01-18T21:37:54.851Z,48.35
2023-01-18T21:40:19.813Z,43.13
2023-01-18T21:43:01.953Z,51.92
2023-01-18T21:45:44.178Z,79.88
2023-01-18T21:48:09.062Z,62.67
2023-01-18T21:50:53.075Z,63.03
2023-01-18T21:53:34.836Z,60.72
2023-01-18T21:55:59.516Z,62.60
2023-01-18T21:58:41.405Z,60.85
2023-01-18T22:01:12.924Z,51.35
2023-01-18T22:03:37.447Z,52.25
2023-01-18T22:06:03.736Z,58.92
2023-01-18T22:08:28.208Z,49.13
2023-01-18T22:10:52.711Z,48.95
2023-01-18T22:13:17.202Z,50.47
2023-01-18T22:15:41.677Z,55.50
2023-01-18T22:18:06.689Z,50.60
2023-01-18T22:20:31.833Z,51.92
2023-01-18T22:22:57.961Z,41.47
2023-01-18T22:25:22.560Z,64.13
2023-01-18T22:27:47.428Z,55.55
2023-01-18T22:30:13.324Z,50.17
2023-01-18T22:32:37.866Z,49.42
2023-01-18T22:35:02.294Z,53.45
2023-01-18T22:37:28.247Z,45.38
2023-01-18T22:39:54.302Z,56.03
2023-01-18T22:42:19.115Z,53.33
2023-01-18T22:44:43.490Z,53.63
2023-01-18T22:47:07.917Z,53.17
2023-01-18T22:49:32.520Z,62.63
2023-01-18T22:51:57.187Z,65.40
2023-01-18T22:54:23.014Z,57.63
2023-01-18T22:56:48.944Z,59.90
2023-01-18T22:59:14.831Z,56.92
2023-01-18T23:01:39.534Z,51.83
2023-01-18T23:04:05.232Z,56.40
2023-01-18T23:06:42.587Z,46.63
2023-01-18T23:09:07.300Z,49.40
2023-01-18T23:11:32.388Z,45.45
2023-01-18T23:14:17.153Z,34.70
2023-01-18T23:16:59.740Z,37.08
2023-01-18T23:19:25.582Z,34.50
2023-01-18T23:21:50.142Z,44.38
2023-01-18T23:24:14.980Z,34.63
2023-01-18T23:26:39.372Z,49.47
2023-01-18T23:29:05.721Z,38.70
2023-01-18T23:31:30.684Z,36.88
2023-01-18T23:33:55.173Z,43.63
2023-01-18T23:36:20.033Z,45.75
2023-01-18T23:39:02.348Z,43.70
2023-01-18T23:41:44.548Z,46.50
2023-01-18T23:44:27.705Z,40.17
2023-01-18T23:47:09.848Z,38.70
2023-01-18T23:49:51.930Z,49.08
2023-01-18T23:52:34.298Z,43.67
2023-01-18T23:54:58.871Z,40.85
2023-01-18T23:57:23.453Z,41.78
2023-01-18T23:59:49.370Z,51.38
